メインページ
METAR-TAF:

METAR-TAF

空港 :

ウラジオストク国際空港

ウラジオストク, ロシア

緯度: 43-07N, 経度: 131-56E, 海抜: 184m

現時点の気象観測

当レポートは23分前の07:00(UTC)に作成
南/南西の風 8kt
気温 23°C
湿度 73%
気圧 1009 hPa
視程10km以上
高度2300ftの雲は散在している, 積乱雲.
弱いにわか雨

METAR: UHWW 200700Z 20004MPS 9999 -SHRA SCT023CB 23/18 Q1009 R25L/0///70 NOSIG RMK QFE756

時間: 17:23 (07:23 UTC)

予報

当レポートは2時間28分前の04:55(UTC)に作成
予報は20日の 06時(UTC)から 21日の 06時(UTC)まで有効
南/南西の風 6kt
視程: 5000m
高度1100ftの雲は散在している
高度2000ftの千切れ雲あり, 積乱雲.
弱いにわか雨
20日の 06時(UTC)から 20日の 12時(UTC)まで一時的に
南/南西の風 16kt
視程: 3500m
高度1200ftの千切れ雲あり, 積乱雲.
弱いにわか雨, 靄
20日の 1200時(UTC)から
南/南東の風 6kt
視程: 3100m
高度1100ftの千切れ雲あり
高度1500ftの千切れ雲あり, 積乱雲.
弱いにわか雨, 靄
21日の 00時(UTC)から 21日の 06時(UTC)まで一時的に
南/南東の風 17kt、最大27ktの突風を伴う
視程: 2100m
高度700ftの千切れ雲あり
高度1300ftの千切れ雲あり, 積乱雲.
弱いにわか雨

TAF: UHWW 200455Z 2006/2106 20003MPS 5000 -SHRA SCT011 BKN020CB TEMPO 2006/2012 21008MPS 3500 -SHRA BR BKN012CB FM201200 15003MPS 3100 -SHRA BR BKN011 BKN015CB TEMPO 2100/2106 16009G14MPS 2100 -SHRA BKN007 BKN013CB

4,000以上の空港の気象観測と天気予報(METAR報とTAF報)

利用可能な観測所は地図上に黄色い丸と赤い丸で示す。

丸の上にカーソルを重ねると観測所名を参照できる。

次にクリックすると気象観測と天気予報を参照できる。

マップの切り替え:黒色「×」印の緑ボタンをクリックして拡大、「-」印の緑ボタンをクリックして縮小、緑色の三角印をクリックして隣りの地図に切り替え


METAR-TAF: